Nouméa, Nouvelle-Calédonie

15:14 NCT le 24 juillet 2014 (GMT +1100)
La Tontouta (NWWW) Alt. 52 ft | 22.02 °S, 166.22 °E | Change Station

Current weather conditions updated 14 minutes ago

Clear
Ciel dégagé
72 ° F
Paraît 72 ° F
N
17
Vent Variable Vent de SE

Aujourd’hui il est prévu de faire pratiquement la même température qu’hier.

Aujourd'hui
Haut(e) -- | Bas -- ° F
--% Risque de précip.
Hier
Haut(e) -- | Bas -- ° F
Precip. -- pouce
6:31 AM 5:30 PM
Lune descendante, 7% visible
Pression 30.06 pouce
Visibilité 6.2 Miles terrestres
Nuages
Point de rosée 50 ° F
Humidité 46%
Précipitations 0.00 pouce
Profondeur de la couche neigeuse Non disponible.
UV Non disponible.
Pollen Non disponible.
Qualité de l'air Non disponible.
Flu Activity Non disponible.
METAR NWWW 240400Z AUTO 14015KT 9999 NSC 22/10 Q1018

More Conditions Fewer Conditions

Pression 30.06 pouce
Visibilité 6.2 Miles terrestres
Nuages
Point de rosée 50 ° F
Humidité 46%
Précipitations 0.00 pouce
Profondeur de la couche neigeuse Non disponible.
UV Non disponible.
Pollen Non disponible.
Qualité de l'air Non disponible.
Flu Activity Non disponible.
METAR NWWW 240400Z AUTO 14015KT 9999 NSC 22/10 Q1018

More Conditions Fewer Conditions

10-Day Weather Forecast

Almanac

Astronomie

Jul. 24, 2014 Lever Coucher
Temps réel 06:31 NCT 17:30 NCT
Crépuscule civil 06:07 NCT 17:54 NCT
Crépuscule nautique 05:40 NCT 18:21 NCT
Crépuscule astronomique 05:13 NCT 18:48 NCT
Lune 04:00 NCT 15:17 NCT
Durée de lumière visible 11h 47m
Longueur du jour
10h 59m
Tomorrow will be 0m 47s longer.
Lune descendante, 7% of the Moon is Illuminated
Aujourd'hui
Lune descendante
juil 26
Nouveau
août 3
Premier quartier
août 10
Pleine lune
août 17
Dernier quartier

Les extrêmes de température d’hier

Country Highs Country Lows

Community

WunderPhotos

Upload Photos

1,736,897 Photos téléchargées !

Nearby

Qualité de l'air

Not available.

Épaisseur de neige

Not available.

Activité sismique

Ville Distance Mag. Time & Date
No recent earthquake activity has been reported nearby.
Minimum magnitude displayed is 2.5.

Températures des eaux côtières

Lieu Température
Aucun rapport de station

Stations météo à proximité

Il n'y a aucune station météorologique personnelle dans cette zone.